sensor_id;sensor_type;location;lat;lon;timestamp;temperature;humidity
55121;DHT22;41019;48.512;9.036;2023-04-03T00:00:14;5.70;88.20
55121;DHT22;41019;48.512;9.036;2023-04-03T00:02:40;5.70;88.30
55121;DHT22;41019;48.512;9.036;2023-04-03T00:05:07;5.60;87.60
55121;DHT22;41019;48.512;9.036;2023-04-03T00:07:33;5.60;87.80
55121;DHT22;41019;48.512;9.036;2023-04-03T00:09:59;5.60;87.60
55121;DHT22;41019;48.512;9.036;2023-04-03T00:12:25;5.70;88.10
55121;DHT22;41019;48.512;9.036;2023-04-03T00:14:50;5.70;87.70
55121;DHT22;41019;48.512;9.036;2023-04-03T00:17:16;5.70;87.40
55121;DHT22;41019;48.512;9.036;2023-04-03T00:19:42;5.60;87.40
55121;DHT22;41019;48.512;9.036;2023-04-03T00:22:08;5.60;87.20
55121;DHT22;41019;48.512;9.036;2023-04-03T00:24:34;5.60;86.80
55121;DHT22;41019;48.512;9.036;2023-04-03T00:27:00;5.60;86.70
55121;DHT22;41019;48.512;9.036;2023-04-03T00:29:26;5.60;86.80
55121;DHT22;41019;48.512;9.036;2023-04-03T00:31:52;5.60;86.80
55121;DHT22;41019;48.512;9.036;2023-04-03T00:34:17;5.60;86.80
55121;DHT22;41019;48.512;9.036;2023-04-03T00:36:43;5.60;86.80
55121;DHT22;41019;48.512;9.036;2023-04-03T00:39:09;5.50;86.50
55121;DHT22;41019;48.512;9.036;2023-04-03T00:41:35;5.50;86.30
55121;DHT22;41019;48.512;9.036;2023-04-03T00:44:19;5.50;86.40
55121;DHT22;41019;48.512;9.036;2023-04-03T00:46:45;5.50;86.30
55121;DHT22;41019;48.512;9.036;2023-04-03T00:49:11;5.50;86.00
55121;DHT22;41019;48.512;9.036;2023-04-03T00:51:37;5.50;86.10
55121;DHT22;41019;48.512;9.036;2023-04-03T00:54:07;5.50;86.10
55121;DHT22;41019;48.512;9.036;2023-04-03T00:56:36;5.50;86.50
55121;DHT22;41019;48.512;9.036;2023-04-03T00:59:13;5.50;86.20
55121;DHT22;41019;48.512;9.036;2023-04-03T01:01:42;5.50;85.80
55121;DHT22;41019;48.512;9.036;2023-04-03T01:06:56;5.40;85.80
55121;DHT22;41019;48.512;9.036;2023-04-03T01:09:24;5.50;85.80
55121;DHT22;41019;48.512;9.036;2023-04-03T01:11:50;5.50;85.80
55121;DHT22;41019;48.512;9.036;2023-04-03T01:14:16;5.50;85.70
55121;DHT22;41019;48.512;9.036;2023-04-03T01:16:52;5.60;86.30
55121;DHT22;41019;48.512;9.036;2023-04-03T01:19:22;5.60;85.40
55121;DHT22;41019;48.512;9.036;2023-04-03T01:22:41;5.60;86.20
55121;DHT22;41019;48.512;9.036;2023-04-03T01:24:47;5.60;85.10
55121;DHT22;41019;48.512;9.036;2023-04-03T01:27:13;5.60;85.50
55121;DHT22;41019;48.512;9.036;2023-04-03T01:29:41;5.50;85.40
55121;DHT22;41019;48.512;9.036;2023-04-03T01:32:09;5.50;84.90
55121;DHT22;41019;48.512;9.036;2023-04-03T01:34:35;5.40;84.90
55121;DHT22;41019;48.512;9.036;2023-04-03T01:37:00;5.40;84.90
55121;DHT22;41019;48.512;9.036;2023-04-03T01:39:26;5.40;85.00
55121;DHT22;41019;48.512;9.036;2023-04-03T01:41:52;5.40;85.40
55121;DHT22;41019;48.512;9.036;2023-04-03T01:44:28;5.30;85.40
55121;DHT22;41019;48.512;9.036;2023-04-03T01:46:54;5.30;85.20
55121;DHT22;41019;48.512;9.036;2023-04-03T01:49:22;5.30;85.20
55121;DHT22;41019;48.512;9.036;2023-04-03T01:51:48;5.40;85.50
55121;DHT22;41019;48.512;9.036;2023-04-03T01:54:14;5.30;85.30
55121;DHT22;41019;48.512;9.036;2023-04-03T01:56:40;5.30;85.20
55121;DHT22;41019;48.512;9.036;2023-04-03T01:59:07;5.30;85.10
55121;DHT22;41019;48.512;9.036;2023-04-03T02:01:32;5.20;85.30
55121;DHT22;41019;48.512;9.036;2023-04-03T02:03:58;5.30;85.70
55121;DHT22;41019;48.512;9.036;2023-04-03T02:06:25;5.20;85.10
55121;DHT22;41019;48.512;9.036;2023-04-03T02:08:51;5.20;85.30
55121;DHT22;41019;48.512;9.036;2023-04-03T02:11:17;5.20;85.20
55121;DHT22;41019;48.512;9.036;2023-04-03T02:13:43;5.10;85.20
55121;DHT22;41019;48.512;9.036;2023-04-03T02:16:10;5.10;85.20
55121;DHT22;41019;48.512;9.036;2023-04-03T02:18:37;5.10;85.20
55121;DHT22;41019;48.512;9.036;2023-04-03T02:21:03;5.10;85.30
55121;DHT22;41019;48.512;9.036;2023-04-03T02:23:29;5.10;85.20
55121;DHT22;41019;48.512;9.036;2023-04-03T02:26:10;5.10;85.40
55121;DHT22;41019;48.512;9.036;2023-04-03T02:28:37;5.10;86.10
55121;DHT22;41019;48.512;9.036;2023-04-03T02:31:04;5.10;85.40
55121;DHT22;41019;48.512;9.036;2023-04-03T02:33:33;5.00;85.30
55121;DHT22;41019;48.512;9.036;2023-04-03T02:35:59;5.00;85.00
55121;DHT22;41019;48.512;9.036;2023-04-03T02:38:26;5.00;85.10
55121;DHT22;41019;48.512;9.036;2023-04-03T02:40:53;4.90;85.10
55121;DHT22;41019;48.512;9.036;2023-04-03T02:43:19;5.00;84.80
55121;DHT22;41019;48.512;9.036;2023-04-03T02:45:45;5.00;84.60
55121;DHT22;41019;48.512;9.036;2023-04-03T02:48:11;4.90;84.20
55121;DHT22;41019;48.512;9.036;2023-04-03T02:50:37;5.00;84.30
55121;DHT22;41019;48.512;9.036;2023-04-03T02:53:03;5.00;84.10
55121;DHT22;41019;48.512;9.036;2023-04-03T02:55:29;5.00;83.90
55121;DHT22;41019;48.512;9.036;2023-04-03T02:57:55;4.90;83.70
55121;DHT22;41019;48.512;9.036;2023-04-03T03:00:21;5.00;84.00
55121;DHT22;41019;48.512;9.036;2023-04-03T03:02:49;4.90;83.60
55121;DHT22;41019;48.512;9.036;2023-04-03T03:05:15;4.90;83.70
55121;DHT22;41019;48.512;9.036;2023-04-03T03:07:41;4.90;83.60
55121;DHT22;41019;48.512;9.036;2023-04-03T03:10:07;4.90;83.80
55121;DHT22;41019;48.512;9.036;2023-04-03T03:12:34;4.90;83.60
55121;DHT22;41019;48.512;9.036;2023-04-03T03:15:00;4.90;83.80
55121;DHT22;41019;48.512;9.036;2023-04-03T03:17:26;4.90;84.00
55121;DHT22;41019;48.512;9.036;2023-04-03T03:19:53;4.90;84.30
55121;DHT22;41019;48.512;9.036;2023-04-03T03:22:19;4.90;83.60
55121;DHT22;41019;48.512;9.036;2023-04-03T03:24:45;4.90;83.80
55121;DHT22;41019;48.512;9.036;2023-04-03T03:27:11;4.90;84.00
55121;DHT22;41019;48.512;9.036;2023-04-03T03:29:37;4.90;83.90
55121;DHT22;41019;48.512;9.036;2023-04-03T03:32:04;4.90;84.30
55121;DHT22;41019;48.512;9.036;2023-04-03T03:34:30;4.90;83.90
55121;DHT22;41019;48.512;9.036;2023-04-03T03:36:56;5.00;84.10
55121;DHT22;41019;48.512;9.036;2023-04-03T03:39:22;5.00;84.10
55121;DHT22;41019;48.512;9.036;2023-04-03T03:41:48;5.00;84.10
55121;DHT22;41019;48.512;9.036;2023-04-03T03:44:15;5.00;84.00
55121;DHT22;41019;48.512;9.036;2023-04-03T03:46:41;5.00;84.30
55121;DHT22;41019;48.512;9.036;2023-04-03T03:49:07;5.00;84.20
55121;DHT22;41019;48.512;9.036;2023-04-03T03:51:33;5.00;83.70
55121;DHT22;41019;48.512;9.036;2023-04-03T03:53:59;5.00;83.50
55121;DHT22;41019;48.512;9.036;2023-04-03T03:56:25;5.00;84.10
55121;DHT22;41019;48.512;9.036;2023-04-03T03:58:52;5.00;83.80
55121;DHT22;41019;48.512;9.036;2023-04-03T04:01:18;5.00;83.90
55121;DHT22;41019;48.512;9.036;2023-04-03T04:03:47;4.90;83.50
55121;DHT22;41019;48.512;9.036;2023-04-03T04:06:17;4.90;83.70
55121;DHT22;41019;48.512;9.036;2023-04-03T04:08:43;4.90;83.50
55121;DHT22;41019;48.512;9.036;2023-04-03T04:11:12;4.80;83.70
55121;DHT22;41019;48.512;9.036;2023-04-03T04:13:39;4.80;83.80
55121;DHT22;41019;48.512;9.036;2023-04-03T04:16:07;4.80;83.90
55121;DHT22;41019;48.512;9.036;2023-04-03T04:18:33;4.80;84.00
55121;DHT22;41019;48.512;9.036;2023-04-03T04:21:00;4.80;84.20
55121;DHT22;41019;48.512;9.036;2023-04-03T04:23:26;4.70;84.10
55121;DHT22;41019;48.512;9.036;2023-04-03T04:25:53;4.70;84.00
55121;DHT22;41019;48.512;9.036;2023-04-03T04:28:20;4.70;84.30
55121;DHT22;41019;48.512;9.036;2023-04-03T04:30:49;4.70;84.20
55121;DHT22;41019;48.512;9.036;2023-04-03T04:33:16;4.70;84.10
55121;DHT22;41019;48.512;9.036;2023-04-03T04:35:43;4.70;84.20
55121;DHT22;41019;48.512;9.036;2023-04-03T04:38:10;4.70;84.50
55121;DHT22;41019;48.512;9.036;2023-04-03T04:40:36;4.70;84.40
55121;DHT22;41019;48.512;9.036;2023-04-03T04:43:03;4.70;84.30
55121;DHT22;41019;48.512;9.036;2023-04-03T04:45:29;4.70;84.50
55121;DHT22;41019;48.512;9.036;2023-04-03T04:47:56;4.80;84.50
55121;DHT22;41019;48.512;9.036;2023-04-03T04:50:23;4.80;84.80
55121;DHT22;41019;48.512;9.036;2023-04-03T04:52:50;4.80;85.00
55121;DHT22;41019;48.512;9.036;2023-04-03T04:55:16;4.80;84.60
55121;DHT22;41019;48.512;9.036;2023-04-03T04:57:42;4.80;84.80
55121;DHT22;41019;48.512;9.036;2023-04-03T05:00:08;4.80;85.20
55121;DHT22;41019;48.512;9.036;2023-04-03T05:02:34;4.80;84.60
55121;DHT22;41019;48.512;9.036;2023-04-03T05:05:00;4.80;84.50
55121;DHT22;41019;48.512;9.036;2023-04-03T05:07:28;4.90;84.70
55121;DHT22;41019;48.512;9.036;2023-04-03T05:09:55;4.90;84.60
55121;DHT22;41019;48.512;9.036;2023-04-03T05:12:22;4.90;84.70
55121;DHT22;41019;48.512;9.036;2023-04-03T05:14:53;4.90;84.30
55121;DHT22;41019;48.512;9.036;2023-04-03T05:17:19;4.90;84.40
55121;DHT22;41019;48.512;9.036;2023-04-03T05:19:49;4.90;84.00
55121;DHT22;41019;48.512;9.036;2023-04-03T05:22:17;4.90;84.00
55121;DHT22;41019;48.512;9.036;2023-04-03T05:24:44;4.90;83.50
55121;DHT22;41019;48.512;9.036;2023-04-03T05:27:10;4.90;83.20
55121;DHT22;41019;48.512;9.036;2023-04-03T05:29:39;4.90;82.60
55121;DHT22;41019;48.512;9.036;2023-04-03T05:32:12;4.90;82.90
55121;DHT22;41019;48.512;9.036;2023-04-03T05:34:38;4.90;82.30
55121;DHT22;41019;48.512;9.036;2023-04-03T05:37:04;4.90;82.20
55121;DHT22;41019;48.512;9.036;2023-04-03T05:39:30;5.00;82.20
55121;DHT22;41019;48.512;9.036;2023-04-03T05:41:59;5.00;81.80
55121;DHT22;41019;48.512;9.036;2023-04-03T05:44:25;5.00;81.50
55121;DHT22;41019;48.512;9.036;2023-04-03T05:46:53;5.00;81.00
55121;DHT22;41019;48.512;9.036;2023-04-03T05:49:19;5.00;80.20
55121;DHT22;41019;48.512;9.036;2023-04-03T05:51:45;5.00;79.70
55121;DHT22;41019;48.512;9.036;2023-04-03T05:54:29;5.10;79.60
55121;DHT22;41019;48.512;9.036;2023-04-03T05:57:02;5.10;79.30
55121;DHT22;41019;48.512;9.036;2023-04-03T05:59:28;5.10;78.70
55121;DHT22;41019;48.512;9.036;2023-04-03T06:01:56;5.10;78.40
55121;DHT22;41019;48.512;9.036;2023-04-03T06:04:23;5.10;78.20
55121;DHT22;41019;48.512;9.036;2023-04-03T06:06:52;5.10;77.70
55121;DHT22;41019;48.512;9.036;2023-04-03T06:09:21;5.10;77.50
55121;DHT22;41019;48.512;9.036;2023-04-03T06:11:48;5.20;77.10
55121;DHT22;41019;48.512;9.036;2023-04-03T06:14:15;5.20;76.80
55121;DHT22;41019;48.512;9.036;2023-04-03T06:16:41;5.20;76.40
55121;DHT22;41019;48.512;9.036;2023-04-03T06:19:08;5.30;76.10
55121;DHT22;41019;48.512;9.036;2023-04-03T06:21:38;5.30;76.40
55121;DHT22;41019;48.512;9.036;2023-04-03T06:24:06;5.30;76.10
55121;DHT22;41019;48.512;9.036;2023-04-03T06:26:33;5.30;75.80
55121;DHT22;41019;48.512;9.036;2023-04-03T06:28:59;5.40;75.70
55121;DHT22;41019;48.512;9.036;2023-04-03T06:31:26;5.40;74.50
55121;DHT22;41019;48.512;9.036;2023-04-03T06:33:51;5.40;73.70
55121;DHT22;41019;48.512;9.036;2023-04-03T06:36:19;5.40;73.90
55121;DHT22;41019;48.512;9.036;2023-04-03T06:38:46;5.50;73.90
55121;DHT22;41019;48.512;9.036;2023-04-03T06:41:12;5.50;73.80
55121;DHT22;41019;48.512;9.036;2023-04-03T06:43:38;5.50;73.30
55121;DHT22;41019;48.512;9.036;2023-04-03T06:46:04;5.60;74.00
55121;DHT22;41019;48.512;9.036;2023-04-03T06:48:31;5.70;74.30
55121;DHT22;41019;48.512;9.036;2023-04-03T06:50:57;5.60;73.90
55121;DHT22;41019;48.512;9.036;2023-04-03T06:53:23;5.60;74.00
55121;DHT22;41019;48.512;9.036;2023-04-03T06:55:49;5.60;74.20
55121;DHT22;41019;48.512;9.036;2023-04-03T06:58:18;5.70;74.20
55121;DHT22;41019;48.512;9.036;2023-04-03T07:00:45;5.70;74.40
55121;DHT22;41019;48.512;9.036;2023-04-03T07:03:10;5.50;73.90
55121;DHT22;41019;48.512;9.036;2023-04-03T07:05:36;5.50;74.50
55121;DHT22;41019;48.512;9.036;2023-04-03T07:08:02;5.60;74.70
55121;DHT22;41019;48.512;9.036;2023-04-03T07:10:28;5.50;74.30
55121;DHT22;41019;48.512;9.036;2023-04-03T07:12:55;5.50;74.70
55121;DHT22;41019;48.512;9.036;2023-04-03T07:15:21;5.60;75.00
55121;DHT22;41019;48.512;9.036;2023-04-03T07:17:47;5.60;74.60
55121;DHT22;41019;48.512;9.036;2023-04-03T07:20:13;5.60;74.50
55121;DHT22;41019;48.512;9.036;2023-04-03T07:22:39;5.60;75.00
55121;DHT22;41019;48.512;9.036;2023-04-03T07:25:05;5.70;74.90
55121;DHT22;41019;48.512;9.036;2023-04-03T07:27:33;5.80;74.90
55121;DHT22;41019;48.512;9.036;2023-04-03T07:29:59;5.90;75.20
55121;DHT22;41019;48.512;9.036;2023-04-03T07:32:25;6.00;73.60
55121;DHT22;41019;48.512;9.036;2023-04-03T07:34:50;6.10;73.50
55121;DHT22;41019;48.512;9.036;2023-04-03T07:37:16;6.30;73.40
55121;DHT22;41019;48.512;9.036;2023-04-03T07:39:44;6.30;73.20
55121;DHT22;41019;48.512;9.036;2023-04-03T07:42:10;6.20;72.60
55121;DHT22;41019;48.512;9.036;2023-04-03T07:44:37;6.30;72.70
55121;DHT22;41019;48.512;9.036;2023-04-03T07:47:03;6.50;72.20
55121;DHT22;41019;48.512;9.036;2023-04-03T07:49:29;6.60;72.80
55121;DHT22;41019;48.512;9.036;2023-04-03T07:51:55;6.60;70.60
55121;DHT22;41019;48.512;9.036;2023-04-03T07:54:21;6.70;71.00
55121;DHT22;41019;48.512;9.036;2023-04-03T07:56:47;6.70;71.50
55121;DHT22;41019;48.512;9.036;2023-04-03T07:59:13;6.80;71.40
55121;DHT22;41019;48.512;9.036;2023-04-03T08:01:39;7.00;70.90
55121;DHT22;41019;48.512;9.036;2023-04-03T08:04:05;7.10;70.90
55121;DHT22;41019;48.512;9.036;2023-04-03T08:06:33;7.20;70.80
55121;DHT22;41019;48.512;9.036;2023-04-03T08:09:02;7.30;70.60
55121;DHT22;41019;48.512;9.036;2023-04-03T08:11:29;7.40;71.90
55121;DHT22;41019;48.512;9.036;2023-04-03T08:13:57;7.50;70.60
55121;DHT22;41019;48.512;9.036;2023-04-03T08:16:24;7.40;70.00
55121;DHT22;41019;48.512;9.036;2023-04-03T08:18:54;7.40;70.60
55121;DHT22;41019;48.512;9.036;2023-04-03T08:21:21;7.50;70.00
55121;DHT22;41019;48.512;9.036;2023-04-03T08:23:49;7.70;69.70
55121;DHT22;41019;48.512;9.036;2023-04-03T08:26:20;7.70;69.50
55121;DHT22;41019;48.512;9.036;2023-04-03T08:28:48;7.40;69.30
55121;DHT22;41019;48.512;9.036;2023-04-03T08:31:17;7.50;69.70
55121;DHT22;41019;48.512;9.036;2023-04-03T08:33:44;7.60;69.70
55121;DHT22;41019;48.512;9.036;2023-04-03T08:36:23;7.60;69.30
55121;DHT22;41019;48.512;9.036;2023-04-03T08:38:51;7.50;69.10
55121;DHT22;41019;48.512;9.036;2023-04-03T08:41:20;7.60;69.40
55121;DHT22;41019;48.512;9.036;2023-04-03T08:44:17;7.60;69.90
55121;DHT22;41019;48.512;9.036;2023-04-03T08:49:48;7.50;69.30
55121;DHT22;41019;48.512;9.036;2023-04-03T08:54:55;7.60;69.50
55121;DHT22;41019;48.512;9.036;2023-04-03T08:57:34;7.60;69.80
55121;DHT22;41019;48.512;9.036;2023-04-03T09:00:06;7.70;69.90
55121;DHT22;41019;48.512;9.036;2023-04-03T09:02:46;7.70;70.30
55121;DHT22;41019;48.512;9.036;2023-04-03T09:05:18;7.90;69.50
55121;DHT22;41019;48.512;9.036;2023-04-03T09:07:59;7.90;68.60
55121;DHT22;41019;48.512;9.036;2023-04-03T09:10:30;7.90;69.00
55121;DHT22;41019;48.512;9.036;2023-04-03T09:15:38;7.90;68.60
55121;DHT22;41019;48.512;9.036;2023-04-03T09:18:30;8.10;68.60
55121;DHT22;41019;48.512;9.036;2023-04-03T09:21:23;8.10;67.90
55121;DHT22;41019;48.512;9.036;2023-04-03T09:23:57;8.30;68.00
55121;DHT22;41019;48.512;9.036;2023-04-03T09:26:36;8.30;66.70
55121;DHT22;41019;48.512;9.036;2023-04-03T09:29:06;8.30;66.70
55121;DHT22;41019;48.512;9.036;2023-04-03T09:31:39;8.40;66.60
55121;DHT22;41019;48.512;9.036;2023-04-03T09:34:32;8.40;65.50
55121;DHT22;41019;48.512;9.036;2023-04-03T09:37:02;8.50;66.20
55121;DHT22;41019;48.512;9.036;2023-04-03T09:39:52;8.70;66.40
55121;DHT22;41019;48.512;9.036;2023-04-03T09:42:24;8.70;65.60
55121;DHT22;41019;48.512;9.036;2023-04-03T09:44:56;8.70;65.80
55121;DHT22;41019;48.512;9.036;2023-04-03T09:47:26;8.70;64.80
55121;DHT22;41019;48.512;9.036;2023-04-03T09:52:38;8.70;63.50
55121;DHT22;41019;48.512;9.036;2023-04-03T09:55:25;8.70;64.50
55121;DHT22;41019;48.512;9.036;2023-04-03T09:58:01;8.80;64.40
55121;DHT22;41019;48.512;9.036;2023-04-03T10:00:37;8.60;63.90
55121;DHT22;41019;48.512;9.036;2023-04-03T10:03:05;8.50;64.20
55121;DHT22;41019;48.512;9.036;2023-04-03T10:05:46;8.50;63.90
55121;DHT22;41019;48.512;9.036;2023-04-03T10:10:44;8.40;64.10
55121;DHT22;41019;48.512;9.036;2023-04-03T10:13:13;8.50;64.50
55121;DHT22;41019;48.512;9.036;2023-04-03T10:15:46;8.70;64.50
55121;DHT22;41019;48.512;9.036;2023-04-03T10:18:42;8.70;63.70
55121;DHT22;41019;48.512;9.036;2023-04-03T10:21:40;8.80;63.70
55121;DHT22;41019;48.512;9.036;2023-04-03T10:24:18;8.80;63.40
55121;DHT22;41019;48.512;9.036;2023-04-03T10:29:45;8.70;63.10
55121;DHT22;41019;48.512;9.036;2023-04-03T10:35:28;8.70;61.90
55121;DHT22;41019;48.512;9.036;2023-04-03T10:38:22;8.80;62.30
55121;DHT22;41019;48.512;9.036;2023-04-03T10:41:00;9.00;61.50
55121;DHT22;41019;48.512;9.036;2023-04-03T10:43:40;8.80;61.50
55121;DHT22;41019;48.512;9.036;2023-04-03T10:49:39;9.00;61.90
55121;DHT22;41019;48.512;9.036;2023-04-03T10:52:52;8.90;60.80
55121;DHT22;41019;48.512;9.036;2023-04-03T10:57:59;8.90;60.20
55121;DHT22;41019;48.512;9.036;2023-04-03T11:00:45;8.90;60.10
55121;DHT22;41019;48.512;9.036;2023-04-03T11:03:44;9.00;60.30
55121;DHT22;41019;48.512;9.036;2023-04-03T11:06:15;9.00;60.30
55121;DHT22;41019;48.512;9.036;2023-04-03T11:08:51;8.80;60.30
55121;DHT22;41019;48.512;9.036;2023-04-03T11:11:27;8.70;60.10
55121;DHT22;41019;48.512;9.036;2023-04-03T11:14:03;8.80;60.10
55121;DHT22;41019;48.512;9.036;2023-04-03T11:16:37;8.80;59.90
55121;DHT22;41019;48.512;9.036;2023-04-03T11:19:20;8.70;59.90
55121;DHT22;41019;48.512;9.036;2023-04-03T11:22:08;8.80;60.40
55121;DHT22;41019;48.512;9.036;2023-04-03T11:24:38;8.70;59.70
55121;DHT22;41019;48.512;9.036;2023-04-03T11:27:17;8.70;58.90
55121;DHT22;41019;48.512;9.036;2023-04-03T11:29:50;8.70;58.50
55121;DHT22;41019;48.512;9.036;2023-04-03T11:35:05;8.70;57.90
55121;DHT22;41019;48.512;9.036;2023-04-03T11:37:41;8.80;57.70
55121;DHT22;41019;48.512;9.036;2023-04-03T11:43:07;8.90;57.40
55121;DHT22;41019;48.512;9.036;2023-04-03T11:50:46;8.80;57.20
55121;DHT22;41019;48.512;9.036;2023-04-03T11:58:26;8.60;55.60
55121;DHT22;41019;48.512;9.036;2023-04-03T12:01:12;8.60;55.80
55121;DHT22;41019;48.512;9.036;2023-04-03T12:04:06;8.80;56.60
55121;DHT22;41019;48.512;9.036;2023-04-03T12:08:58;8.90;57.00
55121;DHT22;41019;48.512;9.036;2023-04-03T12:11:30;8.90;57.70
55121;DHT22;41019;48.512;9.036;2023-04-03T12:16:46;8.90;57.80
55121;DHT22;41019;48.512;9.036;2023-04-03T12:24:30;9.10;58.00
55121;DHT22;41019;48.512;9.036;2023-04-03T12:29:27;8.80;58.10
55121;DHT22;41019;48.512;9.036;2023-04-03T12:34:53;8.70;58.90
55121;DHT22;41019;48.512;9.036;2023-04-03T12:40:34;8.80;57.90
55121;DHT22;41019;48.512;9.036;2023-04-03T12:46:14;8.70;56.40
55121;DHT22;41019;48.512;9.036;2023-04-03T12:48:52;8.90;57.00
55121;DHT22;41019;48.512;9.036;2023-04-03T12:51:34;8.90;56.70
55121;DHT22;41019;48.512;9.036;2023-04-03T12:54:22;8.90;57.30
55121;DHT22;41019;48.512;9.036;2023-04-03T12:56:49;9.00;57.20
55121;DHT22;41019;48.512;9.036;2023-04-03T12:59:23;9.10;57.10
55121;DHT22;41019;48.512;9.036;2023-04-03T13:01:57;8.90;55.90
55121;DHT22;41019;48.512;9.036;2023-04-03T13:04:24;9.00;56.20
55121;DHT22;41019;48.512;9.036;2023-04-03T13:06:51;9.00;56.40
55121;DHT22;41019;48.512;9.036;2023-04-03T13:09:25;9.00;56.00
55121;DHT22;41019;48.512;9.036;2023-04-03T13:12:14;9.00;56.00
55121;DHT22;41019;48.512;9.036;2023-04-03T13:14:49;8.90;55.90
55121;DHT22;41019;48.512;9.036;2023-04-03T13:17:17;8.90;56.60
55121;DHT22;41019;48.512;9.036;2023-04-03T13:19:45;8.80;56.30
55121;DHT22;41019;48.512;9.036;2023-04-03T13:22:34;8.90;56.40
55121;DHT22;41019;48.512;9.036;2023-04-03T13:25:08;9.00;56.70
55121;DHT22;41019;48.512;9.036;2023-04-03T13:27:35;9.10;56.10
55121;DHT22;41019;48.512;9.036;2023-04-03T13:30:03;9.40;58.10
55121;DHT22;41019;48.512;9.036;2023-04-03T13:32:31;9.40;55.60
55121;DHT22;41019;48.512;9.036;2023-04-03T13:34:58;9.40;55.20
55121;DHT22;41019;48.512;9.036;2023-04-03T13:37:28;9.30;55.30
55121;DHT22;41019;48.512;9.036;2023-04-03T13:40:10;9.30;55.70
55121;DHT22;41019;48.512;9.036;2023-04-03T13:42:40;9.30;55.80
55121;DHT22;41019;48.512;9.036;2023-04-03T13:45:21;9.00;55.60
55121;DHT22;41019;48.512;9.036;2023-04-03T13:47:52;9.00;55.30
55121;DHT22;41019;48.512;9.036;2023-04-03T13:50:25;8.90;55.00
55121;DHT22;41019;48.512;9.036;2023-04-03T13:52:55;9.00;55.70
55121;DHT22;41019;48.512;9.036;2023-04-03T13:55:29;9.10;56.20
55121;DHT22;41019;48.512;9.036;2023-04-03T13:57:59;9.10;55.20
55121;DHT22;41019;48.512;9.036;2023-04-03T14:03:01;9.20;54.30
55121;DHT22;41019;48.512;9.036;2023-04-03T14:05:28;9.20;54.40
55121;DHT22;41019;48.512;9.036;2023-04-03T14:07:56;9.30;54.50
55121;DHT22;41019;48.512;9.036;2023-04-03T14:10:22;9.20;54.40
55121;DHT22;41019;48.512;9.036;2023-04-03T14:12:48;9.20;54.30
55121;DHT22;41019;48.512;9.036;2023-04-03T14:15:34;9.30;55.10
55121;DHT22;41019;48.512;9.036;2023-04-03T14:17:59;9.30;54.40
55121;DHT22;41019;48.512;9.036;2023-04-03T14:20:27;9.40;54.80
55121;DHT22;41019;48.512;9.036;2023-04-03T14:22:53;9.40;54.80
55121;DHT22;41019;48.512;9.036;2023-04-03T14:25:20;9.30;54.10
55121;DHT22;41019;48.512;9.036;2023-04-03T14:27:50;9.30;54.70
55121;DHT22;41019;48.512;9.036;2023-04-03T14:30:28;9.30;54.80
55121;DHT22;41019;48.512;9.036;2023-04-03T14:32:56;9.40;54.90
55121;DHT22;41019;48.512;9.036;2023-04-03T14:35:22;9.30;54.20
55121;DHT22;41019;48.512;9.036;2023-04-03T14:37:48;9.30;53.30
55121;DHT22;41019;48.512;9.036;2023-04-03T14:40:19;9.30;53.40
55121;DHT22;41019;48.512;9.036;2023-04-03T14:42:45;9.30;54.30
55121;DHT22;41019;48.512;9.036;2023-04-03T14:45:13;9.30;54.00
55121;DHT22;41019;48.512;9.036;2023-04-03T14:47:53;9.30;54.20
55121;DHT22;41019;48.512;9.036;2023-04-03T14:50:23;9.30;54.10
55121;DHT22;41019;48.512;9.036;2023-04-03T14:52:51;9.20;53.40
55121;DHT22;41019;48.512;9.036;2023-04-03T14:55:21;9.20;54.00
55121;DHT22;41019;48.512;9.036;2023-04-03T14:57:48;9.20;53.30
55121;DHT22;41019;48.512;9.036;2023-04-03T15:00:19;9.10;53.50
55121;DHT22;41019;48.512;9.036;2023-04-03T15:02:46;9.00;53.20
55121;DHT22;41019;48.512;9.036;2023-04-03T15:05:14;9.00;53.00
55121;DHT22;41019;48.512;9.036;2023-04-03T15:07:44;9.00;54.30
55121;DHT22;41019;48.512;9.036;2023-04-03T15:10:21;8.90;53.20
55121;DHT22;41019;48.512;9.036;2023-04-03T15:12:49;8.80;53.60
55121;DHT22;41019;48.512;9.036;2023-04-03T15:15:17;8.80;54.20
55121;DHT22;41019;48.512;9.036;2023-04-03T15:17:46;8.70;53.30
55121;DHT22;41019;48.512;9.036;2023-04-03T15:20:20;8.70;54.10
55121;DHT22;41019;48.512;9.036;2023-04-03T15:22:46;8.60;53.90
55121;DHT22;41019;48.512;9.036;2023-04-03T15:25:13;8.60;54.10
55121;DHT22;41019;48.512;9.036;2023-04-03T15:27:40;8.60;54.40
55121;DHT22;41019;48.512;9.036;2023-04-03T15:30:13;8.60;55.10
55121;DHT22;41019;48.512;9.036;2023-04-03T15:32:40;8.70;55.20
55121;DHT22;41019;48.512;9.036;2023-04-03T15:35:06;8.80;55.00
55121;DHT22;41019;48.512;9.036;2023-04-03T15:37:32;8.70;53.70
55121;DHT22;41019;48.512;9.036;2023-04-03T15:39:58;8.70;53.60
55121;DHT22;41019;48.512;9.036;2023-04-03T15:42:24;8.80;53.70
55121;DHT22;41019;48.512;9.036;2023-04-03T15:44:51;8.80;53.60
55121;DHT22;41019;48.512;9.036;2023-04-03T15:47:17;8.80;52.70
55121;DHT22;41019;48.512;9.036;2023-04-03T15:49:42;8.80;52.70
55121;DHT22;41019;48.512;9.036;2023-04-03T15:52:08;8.60;52.90
55121;DHT22;41019;48.512;9.036;2023-04-03T15:54:34;8.70;53.30
55121;DHT22;41019;48.512;9.036;2023-04-03T15:57:00;8.60;53.70
55121;DHT22;41019;48.512;9.036;2023-04-03T15:59:26;8.50;53.70
55121;DHT22;41019;48.512;9.036;2023-04-03T16:01:54;8.50;53.90
55121;DHT22;41019;48.512;9.036;2023-04-03T16:04:20;8.40;54.90
55121;DHT22;41019;48.512;9.036;2023-04-03T16:06:46;8.40;54.30
55121;DHT22;41019;48.512;9.036;2023-04-03T16:09:12;8.30;55.10
55121;DHT22;41019;48.512;9.036;2023-04-03T16:11:38;8.30;54.20
55121;DHT22;41019;48.512;9.036;2023-04-03T16:14:06;8.40;55.00
55121;DHT22;41019;48.512;9.036;2023-04-03T16:16:33;8.40;55.30
55121;DHT22;41019;48.512;9.036;2023-04-03T16:18:59;8.40;55.50
55121;DHT22;41019;48.512;9.036;2023-04-03T16:21:26;8.40;55.40
55121;DHT22;41019;48.512;9.036;2023-04-03T16:23:52;8.40;54.20
55121;DHT22;41019;48.512;9.036;2023-04-03T16:26:18;8.40;53.90
55121;DHT22;41019;48.512;9.036;2023-04-03T16:28:45;8.40;54.50
55121;DHT22;41019;48.512;9.036;2023-04-03T16:31:11;8.40;53.80
55121;DHT22;41019;48.512;9.036;2023-04-03T16:33:37;8.30;53.50
55121;DHT22;41019;48.512;9.036;2023-04-03T16:36:04;8.30;53.50
55121;DHT22;41019;48.512;9.036;2023-04-03T16:38:30;8.30;53.80
55121;DHT22;41019;48.512;9.036;2023-04-03T16:40:56;8.30;53.80
55121;DHT22;41019;48.512;9.036;2023-04-03T16:43:25;8.30;53.80
55121;DHT22;41019;48.512;9.036;2023-04-03T16:45:51;8.20;53.50
55121;DHT22;41019;48.512;9.036;2023-04-03T16:48:17;8.20;53.40
55121;DHT22;41019;48.512;9.036;2023-04-03T16:50:46;8.20;53.90
55121;DHT22;41019;48.512;9.036;2023-04-03T16:53:13;8.10;53.60
55121;DHT22;41019;48.512;9.036;2023-04-03T16:55:39;8.10;53.60
55121;DHT22;41019;48.512;9.036;2023-04-03T16:58:06;8.10;53.90
55121;DHT22;41019;48.512;9.036;2023-04-03T17:00:32;8.00;53.50
55121;DHT22;41019;48.512;9.036;2023-04-03T17:02:59;8.00;54.00
55121;DHT22;41019;48.512;9.036;2023-04-03T17:05:26;8.00;54.00
55121;DHT22;41019;48.512;9.036;2023-04-03T17:07:52;7.90;53.90